Time;durP1;ratioP1;P1;durP2;ratioP2;P2;SDS_P1;SDS_P2;PMS_P1;PMS_P2;Temp;Humidity;BMP_temperature;BMP_pressure;BME280_temperature;BME280_humidity;BME280_pressure;Samples;Min_cycle;Max_cycle;Signal;HPM_P1;HPM_P2
2022/01/16 00:05:17;;;;;;;153.32;48.85;;;;;;;-3.37;78.44;99460.28;5087307;28;19908;-69
2022/01/16 00:07:42;;;;;;;139.40;47.85;;;;;;;-3.39;78.20;99456.94;5110486;28;20035;-69
2022/01/16 00:10:08;;;;;;;127.40;45.45;;;;;;;-3.37;78.47;99449.56;5110505;28;20039;-70
2022/01/16 00:12:35;;;;;;;119.25;42.42;;;;;;;-3.33;78.69;99450.03;5111035;28;20028;-69
2022/01/16 00:15:01;;;;;;;116.72;42.55;;;;;;;-3.27;78.55;99445.78;5110707;28;20463;-69
2022/01/16 00:17:28;;;;;;;143.07;50.10;;;;;;;-3.20;78.66;99439.50;5110528;28;20037;-69
2022/01/16 00:19:53;;;;;;;133.45;49.92;;;;;;;-3.15;78.32;99426.38;5110272;28;20479;-70
2022/01/16 00:22:23;;;;;;;151.18;53.08;;;;;;;-3.16;78.33;99422.03;5110695;28;20155;-69
2022/01/16 00:24:48;;;;;;;161.57;57.38;;;;;;;-3.18;78.52;99410.63;5092370;28;20386;-69
2022/01/16 00:27:14;;;;;;;185.82;65.28;;;;;;;-3.19;78.51;99418.88;5110121;28;20024;-69
2022/01/16 00:29:39;;;;;;;190.68;66.93;;;;;;;-3.23;78.16;99431.81;5110767;28;20023;-69
2022/01/16 00:32:05;;;;;;;199.43;67.72;;;;;;;-3.26;78.36;99431.34;5089149;28;20514;-70
2022/01/16 00:34:31;;;;;;;205.32;69.50;;;;;;;-3.30;78.10;99404.06;5110777;28;20019;-69
2022/01/16 00:36:56;;;;;;;219.43;74.88;;;;;;;-3.31;78.01;99381.75;5111343;28;20031;-69
2022/01/16 00:39:21;;;;;;;209.82;68.55;;;;;;;-3.29;78.08;99366.31;5111011;28;20379;-69
2022/01/16 00:41:47;;;;;;;222.38;74.13;;;;;;;-3.31;78.09;99384.44;5091606;28;20048;-69
2022/01/16 00:44:12;;;;;;;256.42;89.53;;;;;;;-3.34;78.40;99403.59;5111704;28;20042;-70
2022/01/16 00:46:38;;;;;;;335.65;121.40;;;;;;;-3.36;78.18;99420.91;5109812;28;20027;-70
2022/01/16 00:49:04;;;;;;;376.48;126.13;;;;;;;-3.36;78.25;99415.53;5109012;28;20030;-70
2022/01/16 00:51:30;;;;;;;384.48;134.38;;;;;;;-3.35;78.00;99411.84;5091653;28;20107;-69
2022/01/16 00:53:55;;;;;;;394.88;138.30;;;;;;;-3.30;78.34;99404.06;5110933;28;20115;-69
2022/01/16 00:56:21;;;;;;;391.58;135.77;;;;;;;-3.26;78.77;99397.28;5091184;28;20025;-69
2022/01/16 00:58:47;;;;;;;367.08;132.15;;;;;;;-3.22;78.54;99373.63;5110750;28;20102;-69
2022/01/16 01:01:14;;;;;;;354.50;125.55;;;;;;;-3.20;78.37;99393.06;5111582;28;20076;-69
2022/01/16 01:03:40;;;;;;;357.40;124.57;;;;;;;-3.22;78.38;99395.91;5111445;28;20230;-69
2022/01/16 01:06:06;;;;;;;334.35;122.18;;;;;;;-3.23;78.46;99394.25;5114801;28;20535;-70
2022/01/16 01:08:32;;;;;;;347.65;120.82;;;;;;;-3.29;77.90;99403.06;5095097;28;20057;-69
2022/01/16 01:10:59;;;;;;;331.45;113.55;;;;;;;-3.37;77.56;99387.84;5096311;28;20028;-70
2022/01/16 01:16:01;;;;;;;331.45;109.63;;;;;;;-3.47;77.93;99360.47;5115717;28;20036;-69
2022/01/16 01:18:27;;;;;;;338.90;109.38;;;;;;;-3.51;77.86;99377.94;5115038;28;20031;-70
2022/01/16 01:20:54;;;;;;;310.30;97.88;;;;;;;-3.54;78.01;99348.81;5114825;28;20024;-69
2022/01/16 01:23:20;;;;;;;306.95;96.93;;;;;;;-3.57;77.48;99357.22;5115374;28;20411;-69
2022/01/16 01:25:45;;;;;;;282.42;91.45;;;;;;;-3.57;77.82;99381.34;5115293;28;20032;-69
2022/01/16 01:28:12;;;;;;;251.10;78.68;;;;;;;-3.61;77.69;99365.63;5114837;28;20383;-69
2022/01/16 01:30:40;;;;;;;248.63;78.88;;;;;;;-3.61;77.97;99386.22;5114858;28;20466;-70
2022/01/16 01:33:05;;;;;;;207.98;69.78;;;;;;;-3.63;77.52;99362.28;5115286;28;20483;-70
2022/01/16 01:35:38;;;;;;;221.52;71.07;;;;;;;-3.61;78.17;99260.19;5111555;28;20016;-69
2022/01/16 01:38:06;;;;;;;219.23;69.60;;;;;;;-3.62;77.44;99253.19;5111661;28;20506;-69
2022/01/16 01:40:31;;;;;;;220.90;71.93;;;;;;;-3.65;78.01;99273.16;5114106;28;20054;-70
2022/01/16 01:51:26;;;;;;;;;;;;;;;-3.80;77.50;99291.06;5115213;28;20050;-69
2022/01/16 01:53:55;;;;;;;173.77;57.15;;;;;;;-3.77;77.68;99307.63;5095039;28;19912;-69
2022/01/16 01:56:23;;;;;;;146.95;49.13;;;;;;;-3.70;78.35;99299.69;5095093;28;20429;-69
2022/01/16 01:58:50;;;;;;;127.75;40.63;;;;;;;-3.67;78.12;99290.47;5113122;28;20023;-69
2022/01/16 02:01:15;;;;;;;145.07;48.28;;;;;;;-3.64;78.20;99303.47;5114326;28;20030;-69
2022/01/16 02:06:19;;;;;;;161.00;50.65;;;;;;;-3.63;78.31;99314.03;5114413;28;20543;-69
2022/01/16 02:08:51;;;;;;;180.93;57.50;;;;;;;-3.57;78.60;99284.81;5113604;28;20526;-69
2022/01/16 02:11:19;;;;;;;164.88;53.22;;;;;;;-3.55;78.63;99280.09;5114103;28;20023;-69
2022/01/16 02:13:58;;;;;;;163.90;60.15;;;;;;;-3.56;78.66;99294.53;5114228;28;20024;-69
2022/01/16 02:33:11;;;;;;;157.73;54.40;;;;;;;-3.53;79.00;99320.97;5113637;28;20038;-69
2022/01/16 02:35:33;;;;;;;149.93;51.08;;;;;;;-3.47;78.79;99307.66;5109341;27;20027;-69
2022/01/16 02:37:59;;;;;;;145.07;51.83;;;;;;;-3.44;78.94;99320.72;5113281;28;20080;-69
2022/01/16 02:40:26;;;;;;;152.23;53.22;;;;;;;-3.45;79.09;99321.72;5112574;28;20072;-69
2022/01/16 02:42:52;;;;;;;146.85;51.53;;;;;;;-3.40;78.99;99323.84;5113120;28;20542;-70
2022/01/16 02:45:34;;;;;;;137.75;48.90;;;;;;;-3.37;79.11;99307.38;5093163;28;20112;-69
2022/01/16 02:48:03;;;;;;;130.45;44.22;;;;;;;-3.38;78.99;99307.56;5112971;28;20028;-69
2022/01/16 02:50:29;;;;;;;141.30;50.38;;;;;;;-3.44;78.88;99307.28;5112358;28;20035;-69
2022/01/16 02:52:55;;;;;;;144.60;49.95;;;;;;;-3.45;78.70;99302.09;5113086;28;20386;-69
2022/01/16 02:55:22;;;;;;;135.65;48.33;;;;;;;-3.46;78.71;99303.97;5090906;28;20636;-69
2022/01/16 02:57:53;;;;;;;120.05;45.05;;;;;;;-3.44;79.11;99301.09;5111937;28;20081;-68
2022/01/16 03:00:20;;;;;;;128.45;46.28;;;;;;;-3.40;78.96;99313.13;5111674;28;20037;-69
2022/01/16 03:02:46;;;;;;;131.00;49.85;;;;;;;-3.38;79.09;99305.72;5111527;28;20063;-68
2022/01/16 03:05:13;;;;;;;125.38;44.08;;;;;;;-3.38;78.94;99313.75;5112386;28;20058;-68
2022/01/16 03:07:39;;;;;;;125.97;47.47;;;;;;;-3.37;79.10;99304.69;5112626;27;20036;-69
2022/01/16 03:12:48;;;;;;;140.00;46.50;;;;;;;-3.33;79.02;99297.13;5112836;28;20119;-68
2022/01/16 03:15:18;;;;;;;135.80;50.17;;;;;;;-3.32;79.21;99294.25;5094001;28;20038;-68
2022/01/16 03:23:09;;;;;;;135.98;48.38;;;;;;;-3.33;79.01;99286.41;5110946;27;20748;-69
2022/01/16 03:25:34;;;;;;;138.00;51.70;;;;;;;-3.36;78.92;99284.09;5112595;28;20024;-69
2022/01/16 03:28:00;;;;;;;132.43;46.38;;;;;;;-3.34;78.62;99272.13;5111364;28;20391;-69
2022/01/16 03:30:25;;;;;;;121.15;46.35;;;;;;;-3.38;78.66;99268.16;5107792;28;20070;-69
2022/01/16 03:32:51;;;;;;;138.75;48.78;;;;;;;-3.45;78.35;99268.09;5070592;28;20463;-69
2022/01/16 03:35:16;;;;;;;134.43;46.65;;;;;;;-3.42;78.60;99258.81;5078643;28;20032;-69
2022/01/16 03:37:42;;;;;;;119.28;45.35;;;;;;;-3.39;79.01;99261.13;5080070;28;20539;-68
2022/01/16 03:40:10;;;;;;;112.82;41.20;;;;;;;-3.35;79.07;99266.97;5085181;28;20471;-69
2022/01/16 03:42:37;;;;;;;101.25;35.75;;;;;;;-3.33;78.69;99255.03;5086462;28;20032;-70
2022/01/16 03:45:04;;;;;;;113.45;42.42;;;;;;;-3.36;78.63;99250.03;5072205;28;20539;-69
2022/01/16 03:47:30;;;;;;;112.82;40.80;;;;;;;-3.40;78.81;99254.09;5086541;28;20042;-69
2022/01/16 03:49:55;;;;;;;122.95;45.83;;;;;;;-3.39;79.00;99253.09;5066465;28;20032;-70
2022/01/16 03:52:21;;;;;;;115.93;42.35;;;;;;;-3.41;78.94;99241.72;5085469;27;20016;-70
2022/01/16 03:54:46;;;;;;;114.45;41.70;;;;;;;-3.42;79.01;99234.69;5080303;27;20503;-69
2022/01/16 03:57:12;;;;;;;112.13;41.35;;;;;;;-3.40;78.79;99243.38;5088812;28;20020;-70
2022/01/16 03:59:37;;;;;;;103.93;40.03;;;;;;;-3.37;78.94;99237.63;5110327;28;20415;-69
2022/01/16 04:02:04;;;;;;;102.55;40.55;;;;;;;-3.39;78.50;99233.50;5109928;28;20027;-69
2022/01/16 04:04:30;;;;;;;107.18;39.45;;;;;;;-3.39;78.53;99234.31;5110027;28;20027;-69
2022/01/16 04:06:55;;;;;;;98.07;39.75;;;;;;;-3.39;78.56;99228.94;5109565;28;20076;-69
2022/01/16 04:09:21;;;;;;;105.60;41.47;;;;;;;-3.41;78.92;99225.63;5108586;28;20019;-68
2022/01/16 04:11:57;;;;;;;100.90;38.38;;;;;;;-3.42;78.81;99223.13;5109315;28;20059;-69
2022/01/16 04:17:10;;;;;;;104.40;41.28;;;;;;;-3.39;78.86;99218.22;5108247;28;20035;-69
2022/01/16 04:19:35;;;;;;;112.88;40.75;;;;;;;-3.41;78.98;99206.03;5108672;28;20028;-70
2022/01/16 04:22:01;;;;;;;110.55;39.42;;;;;;;-3.42;78.69;99220.44;5108506;28;20038;-70
2022/01/16 04:24:26;;;;;;;96.40;36.63;;;;;;;-3.47;78.29;99204.94;5109258;28;20027;-68
2022/01/16 04:26:52;;;;;;;98.10;38.63;;;;;;;-3.53;78.62;99213.72;5108242;28;20028;-68
2022/01/16 04:29:18;;;;;;;88.10;35.08;;;;;;;-3.57;78.47;99221.28;5108827;28;20076;-69
2022/01/16 04:31:43;;;;;;;85.45;34.28;;;;;;;-3.59;78.73;99216.13;5108435;28;20031;-68
2022/01/16 04:34:09;;;;;;;85.50;34.33;;;;;;;-3.57;78.21;99209.72;5108692;28;20088;-68
2022/01/16 04:36:34;;;;;;;82.93;34.38;;;;;;;-3.56;78.49;99206.84;5109086;28;20142;-68
2022/01/16 04:39:00;;;;;;;87.25;33.42;;;;;;;-3.55;78.43;99205.03;5089206;28;20028;-68
2022/01/16 04:44:09;;;;;;;82.38;32.13;;;;;;;-3.49;78.46;99196.25;5092305;28;20039;-68
2022/01/16 04:46:34;;;;;;;72.38;31.48;;;;;;;-3.48;78.56;99200.59;5108168;28;20035;-68
2022/01/16 04:49:02;;;;;;;74.15;30.67;;;;;;;-3.44;78.52;99199.16;5108030;28;20026;-69
2022/01/16 04:51:29;;;;;;;79.05;31.60;;;;;;;-3.40;78.66;99203.13;5108292;28;20422;-68
2022/01/16 04:53:54;;;;;;;75.80;31.38;;;;;;;-3.37;78.36;99196.59;5108425;28;20027;-69
2022/01/16 04:56:20;;;;;;;78.80;31.13;;;;;;;-3.37;78.35;99183.19;5108553;28;20076;-68
2022/01/16 04:58:46;;;;;;;78.22;30.67;;;;;;;-3.35;78.68;99176.59;5108549;28;20317;-68
2022/01/16 05:01:11;;;;;;;75.63;30.58;;;;;;;-3.36;78.72;99169.56;5108188;28;20143;-68
2022/01/16 05:03:37;;;;;;;82.82;32.05;;;;;;;-3.34;78.64;99162.16;5108453;28;20464;-68
2022/01/16 05:06:04;;;;;;;76.22;29.58;;;;;;;-3.33;78.32;99161.13;5108837;28;20028;-69
2022/01/16 05:08:30;;;;;;;58.20;24.33;;;;;;;-3.30;78.72;99158.09;5107757;28;20088;-68
2022/01/16 05:10:57;;;;;;;64.97;27.48;;;;;;;-3.30;78.36;99160.75;5108631;28;20475;-68
2022/01/16 05:18:39;;;;;;;62.05;25.63;;;;;;;-3.31;78.31;99152.91;5108315;28;20399;-68
2022/01/16 05:21:06;;;;;;;70.07;29.10;;;;;;;-3.31;78.42;99140.31;5107100;28;20023;-68
2022/01/16 05:23:32;;;;;;;79.13;31.08;;;;;;;-3.24;78.91;99142.25;5108146;28;20107;-68
2022/01/16 05:25:59;;;;;;;69.07;25.67;;;;;;;-3.22;78.66;99141.03;5108133;28;20019;-68
2022/01/16 05:28:25;;;;;;;77.15;28.70;;;;;;;-3.23;78.17;99141.22;5108362;28;20039;-68
2022/01/16 05:30:50;;;;;;;72.75;28.90;;;;;;;-3.25;78.66;99137.91;5107438;28;20032;-68
2022/01/16 05:33:16;;;;;;;64.43;26.92;;;;;;;-3.27;78.63;99134.59;5107959;28;20040;-68
2022/01/16 05:35:42;;;;;;;74.25;26.48;;;;;;;-3.35;78.22;99130.16;5107833;28;20036;-68
2022/01/16 05:38:08;;;;;;;62.90;24.15;;;;;;;-3.40;78.41;99125.34;5107928;28;20034;-68
2022/01/16 05:40:34;;;;;;;61.58;25.63;;;;;;;-3.45;78.94;99123.25;5107675;28;20040;-68
2022/01/16 05:43:01;;;;;;;61.00;24.48;;;;;;;-3.47;78.78;99114.56;5108243;28;20028;-68
2022/01/16 05:45:26;;;;;;;58.88;23.30;;;;;;;-3.52;79.02;99113.47;5107633;28;20031;-68
2022/01/16 05:47:51;;;;;;;54.88;23.45;;;;;;;-3.53;78.98;99114.50;5089498;28;20391;-68
2022/01/16 05:50:17;;;;;;;51.00;22.77;;;;;;;-3.53;79.13;99114.50;5107469;28;20023;-68
2022/01/16 05:52:43;;;;;;;52.30;22.77;;;;;;;-3.53;79.41;99103.78;5090803;28;20136;-69
2022/01/16 05:55:09;;;;;;;63.50;23.67;;;;;;;-3.54;79.71;99107.47;5092803;28;20031;-68
2022/01/16 05:57:34;;;;;;;54.75;22.75;;;;;;;-3.56;79.60;99104.16;5108956;28;20102;-70
2022/01/16 06:00:00;;;;;;;61.50;23.23;;;;;;;-3.60;79.50;99107.19;5111026;28;20099;-69
2022/01/16 06:02:26;;;;;;;49.70;19.83;;;;;;;-3.59;79.56;99099.97;5111407;28;20100;-68
2022/01/16 06:04:52;;;;;;;53.22;20.88;;;;;;;-3.59;79.62;99098.13;5113296;27;20028;-68
2022/01/16 06:07:18;;;;;;;50.38;20.85;;;;;;;-3.59;80.05;99094.59;5111106;28;20031;-69
2022/01/16 06:09:44;;;;;;;49.88;21.05;;;;;;;-3.60;79.81;99087.59;5111103;28;20050;-68
2022/01/16 06:12:10;;;;;;;48.67;21.35;;;;;;;-3.58;79.87;99085.53;5111701;28;20514;-68
2022/01/16 06:14:35;;;;;;;49.13;19.00;;;;;;;-3.57;80.20;99092.56;5092215;28;20039;-68
2022/01/16 06:17:01;;;;;;;47.78;19.67;;;;;;;-3.57;79.92;99089.06;5110735;28;20043;-68
2022/01/16 06:19:26;;;;;;;42.95;18.00;;;;;;;-3.57;79.97;99086.41;5110846;28;20103;-68
2022/01/16 06:21:51;;;;;;;42.97;18.65;;;;;;;-3.55;80.49;99081.66;5111147;28;20379;-69
2022/01/16 06:24:17;;;;;;;48.35;20.40;;;;;;;-3.56;79.88;99072.78;5111269;28;20020;-69
2022/01/16 06:26:43;;;;;;;47.47;19.08;;;;;;;-3.55;80.76;99070.94;5111205;28;20504;-68
2022/01/16 06:29:09;;;;;;;45.15;18.05;;;;;;;-3.53;80.42;99069.72;5110873;28;20845;-69
2022/01/16 06:31:35;;;;;;;38.70;18.73;;;;;;;-3.53;80.41;99069.72;5111293;28;20023;-69
2022/01/16 06:34:02;;;;;;;42.90;18.83;;;;;;;-3.52;80.54;99073.25;5110880;28;20023;-69
2022/01/16 06:36:28;;;;;;;41.55;17.40;;;;;;;-3.49;80.55;99060.28;5092692;28;20046;-68
2022/01/16 06:38:54;;;;;;;35.03;14.95;;;;;;;-3.48;80.28;99064.63;5110551;28;20058;-69
2022/01/16 06:41:20;;;;;;;41.80;16.75;;;;;;;-3.44;80.82;99068.59;5111416;28;20044;-69
2022/01/16 06:43:46;;;;;;;34.67;13.90;;;;;;;-3.43;80.50;99072.09;5110519;28;20034;-68
2022/01/16 06:46:12;;;;;;;35.78;14.85;;;;;;;-3.41;80.44;99075.41;5110935;28;20460;-68
2022/01/16 06:48:37;;;;;;;36.88;16.25;;;;;;;-3.37;80.34;99067.84;5092507;28;20027;-68
2022/01/16 06:51:03;;;;;;;34.15;16.27;;;;;;;-3.37;80.56;99059.78;5093480;28;20038;-68
2022/01/16 06:53:29;;;;;;;37.38;16.23;;;;;;;-3.34;80.55;99064.78;5111736;28;20063;-68
2022/01/16 06:55:54;;;;;;;35.97;17.00;;;;;;;-3.30;80.60;99074.09;5111795;28;20058;-68
2022/01/16 06:58:20;;;;;;;39.30;16.67;;;;;;;-3.30;80.56;99072.25;5111520;28;20038;-68
2022/01/16 07:00:46;;;;;;;35.90;16.25;;;;;;;-3.29;80.31;99068.53;5092666;28;20538;-68
2022/01/16 07:03:13;;;;;;;40.97;16.67;;;;;;;-3.26;80.34;99077.22;5109744;28;20016;-68
2022/01/16 07:05:40;;;;;;;38.50;14.38;;;;;;;-3.22;80.65;99068.59;5110450;28;20056;-68
2022/01/16 07:08:05;;;;;;;34.08;15.13;;;;;;;-3.19;80.95;99062.84;5090779;28;20516;-68
2022/01/16 07:10:31;;;;;;;44.55;18.15;;;;;;;-3.15;80.63;99064.13;5110600;28;20040;-69
2022/01/16 07:12:56;;;;;;;41.45;18.05;;;;;;;-3.09;80.87;99064.38;5110153;28;20023;-68
2022/01/16 07:15:21;;;;;;;35.90;17.52;;;;;;;-3.05;80.71;99054.94;5110297;28;20104;-69
2022/01/16 07:17:47;;;;;;;38.10;16.30;;;;;;;-3.03;80.68;99048.34;5111361;28;20019;-69
2022/01/16 07:20:14;;;;;;;36.90;16.73;;;;;;;-3.01;80.72;99048.97;5111046;28;20027;-69
2022/01/16 07:22:40;;;;;;;39.17;16.40;;;;;;;-2.99;81.13;99065.72;5111633;28;20023;-69
2022/01/16 07:25:05;;;;;;;40.38;16.08;;;;;;;-2.96;80.38;99045.72;5111076;28;20039;-69
2022/01/16 07:27:31;;;;;;;33.35;16.55;;;;;;;-2.94;80.73;99051.72;5111495;28;20039;-69
2022/01/16 07:29:56;;;;;;;29.88;13.18;;;;;;;-2.92;80.55;99047.00;5091397;28;20016;-69
2022/01/16 07:32:22;;;;;;;40.03;16.42;;;;;;;-2.86;80.46;99053.44;5111013;28;20488;-69
2022/01/16 07:34:47;;;;;;;39.40;16.83;;;;;;;-2.84;80.36;99054.06;5110845;28;20053;-68
2022/01/16 07:37:12;;;;;;;38.75;15.10;;;;;;;-2.82;80.50;99059.22;5110919;28;20030;-68
2022/01/16 07:39:38;;;;;;;33.38;14.95;;;;;;;-2.77;80.53;99060.31;5110660;28;20161;-69
2022/01/16 07:42:04;;;;;;;36.78;16.45;;;;;;;-2.73;80.66;99066.97;5092504;28;20483;-68
2022/01/16 07:44:29;;;;;;;53.70;25.77;;;;;;;-2.70;80.37;99053.16;5110506;28;20523;-68
2022/01/16 07:46:55;;;;;;;66.55;29.42;;;;;;;-2.62;80.21;99062.06;5092282;28;20129;-68
2022/01/16 07:49:20;;;;;;;73.38;31.15;;;;;;;-2.59;80.33;99051.78;5110136;28;20020;-69
2022/01/16 07:51:46;;;;;;;48.20;21.33;;;;;;;-2.55;80.49;99055.75;5111042;28;20035;-68
2022/01/16 07:54:11;;;;;;;49.67;19.73;;;;;;;-2.49;80.33;99050.63;5110492;28;20028;-68
2022/01/16 07:56:36;;;;;;;48.38;18.60;;;;;;;-2.46;80.21;99053.72;5110628;28;20032;-69
2022/01/16 07:59:02;;;;;;;45.75;17.63;;;;;;;-2.41;80.00;99059.34;5109391;28;20112;-69
2022/01/16 08:01:27;;;;;;;38.63;18.38;;;;;;;-2.37;80.01;99061.63;5110569;28;20467;-69
2022/01/16 08:03:53;;;;;;;46.67;18.58;;;;;;;-2.33;79.82;99057.53;5110223;28;20103;-68
2022/01/16 08:06:18;;;;;;;36.72;15.73;;;;;;;-2.28;79.82;99063.16;5110142;28;20490;-68
2022/01/16 08:08:44;;;;;;;39.10;16.77;;;;;;;-2.23;79.99;99049.91;5109967;28;20031;-68
2022/01/16 08:11:09;;;;;;;35.08;13.95;;;;;;;-2.17;79.85;99049.13;5110073;28;20440;-69
2022/01/16 08:13:36;;;;;;;32.45;13.63;;;;;;;-2.10;79.63;99039.25;5110261;28;20020;-68
2022/01/16 08:16:07;;;;;;;39.13;15.63;;;;;;;-2.05;79.43;99040.50;5109778;28;20043;-69
2022/01/16 08:18:33;;;;;;;37.38;15.88;;;;;;;-2.01;79.21;99026.47;5110104;28;20028;-69
2022/01/16 08:20:59;;;;;;;30.90;13.15;;;;;;;-1.95;79.49;99016.78;5091266;28;20224;-68
2022/01/16 08:23:24;;;;;;;32.40;13.77;;;;;;;-1.91;79.34;99026.13;5110106;28;20122;-68
2022/01/16 08:25:51;;;;;;;38.25;15.27;;;;;;;-1.83;79.14;99015.16;5109947;28;20032;-68
2022/01/16 08:28:17;;;;;;;46.65;16.73;;;;;;;-1.74;78.97;99018.50;5109865;28;20034;-68
2022/01/16 08:30:42;;;;;;;45.22;15.40;;;;;;;-1.65;78.98;99014.63;5109738;28;20063;-69
2022/01/16 08:33:08;;;;;;;38.53;16.52;;;;;;;-1.56;78.92;99012.56;5091767;28;20024;-69
2022/01/16 08:35:33;;;;;;;42.08;17.63;;;;;;;-1.46;78.67;99008.66;5109988;28;20387;-69
2022/01/16 08:37:59;;;;;;;40.20;16.15;;;;;;;-1.38;78.01;99006.59;5109775;28;20024;-68
2022/01/16 08:40:24;;;;;;;38.20;14.35;;;;;;;-1.29;77.30;98995.63;5109642;28;20085;-68
2022/01/16 08:42:50;;;;;;;38.55;15.88;;;;;;;-1.21;77.10;98988.19;5091066;28;20525;-69
2022/01/16 08:45:16;;;;;;;38.67;15.02;;;;;;;-1.16;77.24;98984.03;5109471;28;20024;-68
2022/01/16 08:47:41;;;;;;;39.25;14.98;;;;;;;-1.07;77.17;98983.63;5091560;28;20028;-67
2022/01/16 08:50:09;;;;;;;35.58;14.20;;;;;;;-1.02;76.17;98979.47;5109534;28;20110;-68
2022/01/16 08:52:34;;;;;;;38.00;15.45;;;;;;;-0.95;76.32;98986.50;5110022;28;20479;-68
2022/01/16 08:55:01;;;;;;;40.28;16.38;;;;;;;-0.88;76.02;98969.53;5109774;28;20031;-68
2022/01/16 08:57:27;;;;;;;42.30;14.98;;;;;;;-0.84;76.12;98973.47;5109614;28;20026;-68
2022/01/16 08:59:52;;;;;;;39.53;14.20;;;;;;;-0.78;75.39;98972.63;5109124;28;20028;-69
2022/01/16 09:02:18;;;;;;;39.92;15.00;;;;;;;-0.74;75.12;98965.78;5109636;28;20131;-68
2022/01/16 09:04:43;;;;;;;30.58;13.75;;;;;;;-0.70;74.67;98958.94;5091552;28;20110;-68
2022/01/16 09:07:08;;;;;;;33.85;14.18;;;;;;;-0.63;74.52;98961.63;5108999;28;20074;-69
2022/01/16 09:09:34;;;;;;;33.50;12.60;;;;;;;-0.58;74.93;98958.28;5109201;28;20488;-69
2022/01/16 09:12:00;;;;;;;31.02;13.70;;;;;;;-0.53;73.91;98950.38;5109932;28;20020;-69
2022/01/16 09:14:25;;;;;;;31.83;13.10;;;;;;;-0.46;74.40;98953.91;5109030;28;20035;-68
2022/01/16 09:16:51;;;;;;;37.97;14.23;;;;;;;-0.41;74.55;98948.72;5108934;28;20027;-68
2022/01/16 09:19:17;;;;;;;33.17;12.05;;;;;;;-0.34;73.73;98940.59;5108165;28;20478;-68
2022/01/16 09:21:43;;;;;;;37.67;13.75;;;;;;;-0.28;73.79;98939.75;5107988;28;20073;-68
2022/01/16 09:24:08;;;;;;;36.85;13.55;;;;;;;-0.23;73.82;98942.63;5089534;28;20511;-68
2022/01/16 09:26:35;;;;;;;33.63;13.80;;;;;;;-0.15;74.04;98933.47;5110611;28;20503;-69
2022/01/16 09:29:01;;;;;;;34.40;11.98;;;;;;;-0.08;73.05;98930.75;5111360;28;20036;-69
2022/01/16 09:31:26;;;;;;;28.00;12.32;;;;;;;-0.05;73.38;98923.03;5112141;28;20027;-68
2022/01/16 09:33:54;;;;;;;29.80;11.77;;;;;;;0.01;73.41;98926.75;5112712;27;20028;-69
2022/01/16 09:36:19;;;;;;;31.67;10.68;;;;;;;0.08;72.41;98913.25;5112996;28;20019;-69
2022/01/16 09:38:45;;;;;;;28.50;11.60;;;;;;;0.15;72.63;98914.03;5113010;28;20118;-68
2022/01/16 09:41:11;;;;;;;28.58;11.50;;;;;;;0.24;72.15;98918.09;5112319;27;20097;-68
2022/01/16 09:43:38;;;;;;;24.27;9.35;;;;;;;0.35;70.53;98921.16;5111557;28;20028;-68
2022/01/16 09:46:04;;;;;;;27.23;11.23;;;;;;;0.42;70.41;98924.63;5111931;28;20027;-68
2022/01/16 09:48:29;;;;;;;28.23;9.80;;;;;;;0.54;70.55;98931.00;5093063;28;20446;-68
2022/01/16 09:50:55;;;;;;;28.85;10.68;;;;;;;0.59;69.29;98920.38;5108994;27;20024;-69
2022/01/16 09:53:22;;;;;;;24.70;9.88;;;;;;;0.63;69.49;98904.56;5107909;28;20498;-69
2022/01/16 09:55:48;;;;;;;24.30;9.88;;;;;;;0.68;68.01;98907.41;5094266;27;20025;-68
2022/01/16 09:58:13;;;;;;;27.63;9.88;;;;;;;0.73;68.53;98898.66;5112478;28;20024;-68
2022/01/16 10:00:39;;;;;;;23.30;9.43;;;;;;;0.77;67.58;98907.97;5111899;27;20436;-68
2022/01/16 10:03:05;;;;;;;28.45;9.25;;;;;;;0.80;66.67;98890.50;5114097;27;20036;-68
2022/01/16 10:05:38;;;;;;;20.80;8.18;;;;;;;0.83;67.50;98896.28;5114186;27;20031;-68
2022/01/16 10:08:07;;;;;;;16.55;6.80;;;;;;;0.87;65.01;98893.94;5111541;28;20100;-69
2022/01/16 10:10:36;;;;;;;22.52;8.25;;;;;;;0.90;64.94;98888.09;5111982;28;20032;-69
2022/01/16 10:13:24;;;;;;;22.67;8.60;;;;;;;0.95;65.59;98873.94;5111378;28;20447;-69
2022/01/16 10:15:57;;;;;;;28.70;10.60;;;;;;;0.98;65.28;98876.22;5111204;28;20471;-69
2022/01/16 10:18:40;;;;;;;24.83;8.60;;;;;;;1.01;65.51;98884.69;5093890;28;20023;-69
2022/01/16 10:21:07;;;;;;;25.70;9.50;;;;;;;1.07;65.01;98888.34;5110982;28;20085;-69
2022/01/16 10:23:43;;;;;;;19.77;7.40;;;;;;;1.10;65.22;98871.69;5092568;28;20407;-69
2022/01/16 10:26:19;;;;;;;15.80;7.10;;;;;;;1.14;63.29;98877.50;5111045;28;20032;-69
2022/01/16 10:28:44;;;;;;;19.48;7.85;;;;;;;1.21;63.46;98861.19;5110102;28;20122;-69
2022/01/16 10:31:22;;;;;;;19.50;7.25;;;;;;;1.24;62.04;98869.66;5093057;28;20461;-69
2022/01/16 10:33:48;;;;;;;25.70;11.20;;;;;;;1.28;63.39;98860.06;5110645;28;20076;-69
2022/01/16 10:36:34;;;;;;;21.58;7.75;;;;;;;1.35;62.98;98860.00;5111304;27;20024;-68
2022/01/16 10:39:10;;;;;;;20.15;7.63;;;;;;;1.43;62.42;98869.69;5107999;28;20028;-69
2022/01/16 10:41:36;;;;;;;21.85;8.80;;;;;;;1.48;61.90;98859.03;5109443;28;20071;-69
2022/01/16 10:44:03;;;;;;;31.05;10.90;;;;;;;1.55;62.07;98861.63;5092026;28;20060;-69
2022/01/16 10:46:29;;;;;;;18.35;7.53;;;;;;;1.60;59.90;98850.97;5110279;28;20472;-69
2022/01/16 10:49:14;;;;;;;18.67;7.53;;;;;;;1.66;60.81;98857.31;5109269;28;20031;-69
2022/01/16 10:51:39;;;;;;;20.10;7.13;;;;;;;1.67;60.10;98853.56;5110987;27;20019;-69
2022/01/16 10:54:31;;;;;;;20.42;8.10;;;;;;;1.66;60.85;98841.94;5111143;28;20020;-69
2022/01/16 10:56:57;;;;;;;14.45;5.95;;;;;;;1.69;59.55;98840.66;5110464;28;20130;-69
2022/01/16 10:59:24;;;;;;;20.33;7.40;;;;;;;1.71;59.77;98839.38;5110306;28;20023;-69
2022/01/16 11:02:05;;;;;;;18.10;7.28;;;;;;;1.74;59.89;98838.94;5111166;28;20039;-69
2022/01/16 11:04:30;;;;;;;21.17;8.75;;;;;;;1.80;60.54;98831.75;5110475;28;20028;-69
2022/01/16 11:07:03;;;;;;;17.00;7.88;;;;;;;1.84;60.52;98821.31;5110319;28;20022;-69
2022/01/16 11:09:31;;;;;;;21.20;8.20;;;;;;;1.91;61.08;98820.16;5090076;28;20114;-69
2022/01/16 11:11:59;;;;;;;18.90;7.95;;;;;;;1.97;61.56;98814.91;5110127;28;20023;-69
2022/01/16 11:14:29;;;;;;;19.23;8.15;;;;;;;2.03;59.90;98814.78;5110014;28;20024;-69
2022/01/16 11:16:56;;;;;;;13.73;6.82;;;;;;;2.08;59.43;98814.91;5108024;28;20551;-69
2022/01/16 11:19:24;;;;;;;21.17;8.50;;;;;;;2.13;60.83;98802.56;5109577;28;20028;-69
2022/01/16 11:21:56;;;;;;;21.95;8.63;;;;;;;2.16;60.68;98818.34;5110373;28;20035;-69
2022/01/16 11:24:35;;;;;;;31.27;13.10;;;;;;;2.27;60.86;98812.13;5108292;28;20028;-69
2022/01/16 11:27:01;;;;;;;35.35;15.38;;;;;;;2.35;61.68;98825.31;5106998;28;20574;-69
2022/01/16 11:29:28;;;;;;;32.17;13.63;;;;;;;2.44;61.13;98815.00;5108989;28;20081;-68
2022/01/16 11:31:56;;;;;;;32.20;15.20;;;;;;;2.50;61.27;98808.59;5109125;28;20476;-69
2022/01/16 11:34:22;;;;;;;21.25;9.20;;;;;;;2.56;60.45;98806.03;5111142;28;20023;-69
2022/01/16 11:36:47;;;;;;;19.15;9.65;;;;;;;2.61;60.97;98812.41;5109663;28;20627;-67
2022/01/16 11:39:13;;;;;;;22.70;10.35;;;;;;;2.64;60.86;98814.66;5108865;27;20092;-68
2022/01/16 11:41:51;;;;;;;24.13;9.40;;;;;;;2.64;60.73;98809.22;5107245;28;20056;-67
2022/01/16 11:44:24;;;;;;;25.20;9.75;;;;;;;2.65;59.67;98799.19;5110292;28;20024;-68
2022/01/16 11:46:52;;;;;;;26.83;11.07;;;;;;;2.63;60.27;98799.44;5111851;28;20019;-68
2022/01/16 11:49:34;;;;;;;24.23;9.20;;;;;;;2.59;59.66;98803.69;5109578;27;20032;-68
2022/01/16 11:52:11;;;;;;;21.95;9.50;;;;;;;2.57;60.51;98792.28;5111384;28;20027;-68
2022/01/16 11:54:39;;;;;;;19.40;8.77;;;;;;;2.56;60.90;98796.03;5110685;28;20027;-68
2022/01/16 11:57:15;;;;;;;18.48;8.27;;;;;;;2.53;59.91;98796.50;5110366;28;20070;-68
2022/01/16 11:59:41;;;;;;;22.38;8.88;;;;;;;2.57;60.37;98788.72;5109944;28;20398;-68
2022/01/16 12:02:09;;;;;;;21.95;9.10;;;;;;;2.64;60.08;98789.44;5109538;28;20024;-67
2022/01/16 12:04:34;;;;;;;23.55;9.25;;;;;;;2.69;59.85;98789.56;5110040;28;20536;-68
2022/01/16 12:07:12;;;;;;;18.40;8.07;;;;;;;2.74;59.99;98792.38;5110299;28;20035;-68
2022/01/16 12:09:40;;;;;;;21.83;9.38;;;;;;;2.76;59.40;98787.53;5110266;28;20019;-67